sensor_id;sensor_type;location;lat;lon;timestamp;pressure;altitude;pressure_sealevel;temperature;humidity
20027;BME280;10174;42.688;23.344;2023-02-13T00:00:17;97034.13;;;-1.16;86.83
20027;BME280;10174;42.688;23.344;2023-02-13T00:02:43;97074.00;;;-0.92;87.65
20027;BME280;10174;42.688;23.344;2023-02-13T00:05:08;97068.63;;;-1.00;87.72
20027;BME280;10174;42.688;23.344;2023-02-13T00:07:34;97078.59;;;-0.94;87.63
20027;BME280;10174;42.688;23.344;2023-02-13T00:09:59;97080.03;;;-0.81;87.64
20027;BME280;10174;42.688;23.344;2023-02-13T00:12:24;97058.28;;;-1.11;87.99
20027;BME280;10174;42.688;23.344;2023-02-13T00:14:50;97086.63;;;-0.85;87.51
20027;BME280;10174;42.688;23.344;2023-02-13T00:17:15;97087.22;;;-0.92;87.57
20027;BME280;10174;42.688;23.344;2023-02-13T00:19:41;96988.66;;;-1.56;87.65
20027;BME280;10174;42.688;23.344;2023-02-13T00:22:07;97102.75;;;-0.88;87.25
20027;BME280;10174;42.688;23.344;2023-02-13T00:24:32;97007.44;;;-1.31;87.14
20027;BME280;10174;42.688;23.344;2023-02-13T00:26:58;97086.06;;;-0.89;87.24
20027;BME280;10174;42.688;23.344;2023-02-13T00:29:23;97067.41;;;-0.78;86.16
20027;BME280;10174;42.688;23.344;2023-02-13T00:31:48;97014.31;;;-1.20;86.08
20027;BME280;10174;42.688;23.344;2023-02-13T00:34:14;97007.06;;;-1.18;85.64
20027;BME280;10174;42.688;23.344;2023-02-13T00:36:39;97037.25;;;-1.03;85.53
20027;BME280;10174;42.688;23.344;2023-02-13T00:39:04;97001.41;;;-1.23;85.47
20027;BME280;10174;42.688;23.344;2023-02-13T00:41:30;97080.16;;;-0.73;85.14
20027;BME280;10174;42.688;23.344;2023-02-13T00:43:55;97096.88;;;-0.82;85.62
20027;BME280;10174;42.688;23.344;2023-02-13T00:46:21;97110.75;;;-0.80;85.84
20027;BME280;10174;42.688;23.344;2023-02-13T00:48:46;97084.94;;;-0.86;86.34
20027;BME280;10174;42.688;23.344;2023-02-13T00:51:12;97011.84;;;-1.32;86.01
20027;BME280;10174;42.688;23.344;2023-02-13T00:53:37;97028.47;;;-1.21;86.25
20027;BME280;10174;42.688;23.344;2023-02-13T00:56:04;97093.94;;;-0.79;86.09
20027;BME280;10174;42.688;23.344;2023-02-13T00:58:30;97057.97;;;-1.08;85.65
20027;BME280;10174;42.688;23.344;2023-02-13T01:00:56;97101.56;;;-0.76;85.55
20027;BME280;10174;42.688;23.344;2023-02-13T01:03:22;96988.94;;;-1.49;85.37
20027;BME280;10174;42.688;23.344;2023-02-13T01:05:48;97091.19;;;-0.87;85.79
20027;BME280;10174;42.688;23.344;2023-02-13T01:08:15;97110.97;;;-0.74;85.74
20027;BME280;10174;42.688;23.344;2023-02-13T01:10:42;97026.28;;;-1.26;85.50
20027;BME280;10174;42.688;23.344;2023-02-13T01:13:09;97109.03;;;-0.72;85.29
20027;BME280;10174;42.688;23.344;2023-02-13T01:15:35;97069.41;;;-0.90;84.52
20027;BME280;10174;42.688;23.344;2023-02-13T01:18:01;97114.84;;;-0.68;84.38
20027;BME280;10174;42.688;23.344;2023-02-13T01:20:28;97092.56;;;-0.83;86.46
20027;BME280;10174;42.688;23.344;2023-02-13T01:22:54;97100.66;;;-0.67;86.25
20027;BME280;10174;42.688;23.344;2023-02-13T01:25:20;97086.53;;;-0.76;86.66
20027;BME280;10174;42.688;23.344;2023-02-13T01:27:45;97053.78;;;-0.83;86.18
20027;BME280;10174;42.688;23.344;2023-02-13T01:30:12;97104.75;;;-0.55;86.43
20027;BME280;10174;42.688;23.344;2023-02-13T01:32:39;97020.00;;;-0.97;86.06
20027;BME280;10174;42.688;23.344;2023-02-13T01:35:06;97095.25;;;-0.47;86.11
20027;BME280;10174;42.688;23.344;2023-02-13T01:37:32;97111.19;;;-0.39;85.73
20027;BME280;10174;42.688;23.344;2023-02-13T01:39:57;97092.53;;;-0.56;85.55
20027;BME280;10174;42.688;23.344;2023-02-13T01:42:28;97109.13;;;-0.45;86.30
20027;BME280;10174;42.688;23.344;2023-02-13T01:44:58;97121.16;;;-0.33;86.26
20027;BME280;10174;42.688;23.344;2023-02-13T01:50:33;97121.59;;;-0.38;86.34
20027;BME280;10174;42.688;23.344;2023-02-13T01:53:18;97046.41;;;-0.97;86.51
20027;BME280;10174;42.688;23.344;2023-02-13T01:55:55;97085.19;;;-0.62;86.46
20027;BME280;10174;42.688;23.344;2023-02-13T01:58:25;97129.00;;;-0.41;86.01
20027;BME280;10174;42.688;23.344;2023-02-13T02:00:51;97128.84;;;-0.40;86.08
20027;BME280;10174;42.688;23.344;2023-02-13T02:03:22;97064.59;;;-0.76;86.08
20027;BME280;10174;42.688;23.344;2023-02-13T02:05:50;97119.09;;;-0.39;85.93
20027;BME280;10174;42.688;23.344;2023-02-13T02:08:16;97119.03;;;-0.29;85.92
20027;BME280;10174;42.688;23.344;2023-02-13T02:10:43;97001.69;;;-0.99;85.15
20027;BME280;10174;42.688;23.344;2023-02-13T02:13:14;97053.75;;;-0.73;85.41
20027;BME280;10174;42.688;23.344;2023-02-13T02:15:42;97122.28;;;-0.36;86.11
20027;BME280;10174;42.688;23.344;2023-02-13T02:18:21;97115.78;;;-0.41;85.86
20027;BME280;10174;42.688;23.344;2023-02-13T02:23:40;97114.78;;;-0.40;86.32
20027;BME280;10174;42.688;23.344;2023-02-13T02:32:30;97107.78;;;-0.49;86.17
20027;BME280;10174;42.688;23.344;2023-02-13T02:43:27;97132.06;;;-0.64;87.00
20027;BME280;10174;42.688;23.344;2023-02-13T02:46:09;97126.78;;;-0.64;87.02
20027;BME280;10174;42.688;23.344;2023-02-13T02:57:16;97146.81;;;-0.71;87.68
20027;BME280;10174;42.688;23.344;2023-02-13T02:59:45;97155.41;;;-0.69;88.09
20027;BME280;10174;42.688;23.344;2023-02-13T03:02:29;97062.19;;;-1.15;87.59
20027;BME280;10174;42.688;23.344;2023-02-13T03:05:34;97133.69;;;-0.63;87.15
20027;BME280;10174;42.688;23.344;2023-02-13T03:08:22;97132.13;;;-0.56;86.28
20027;BME280;10174;42.688;23.344;2023-02-13T03:11:08;97095.22;;;-0.83;86.12
20027;BME280;10174;42.688;23.344;2023-02-13T03:13:53;97144.06;;;-0.51;86.19
20027;BME280;10174;42.688;23.344;2023-02-13T03:16:22;97073.00;;;-0.91;86.25
20027;BME280;10174;42.688;23.344;2023-02-13T03:19:13;97095.41;;;-0.67;85.60
20027;BME280;10174;42.688;23.344;2023-02-13T03:29:00;97147.59;;;-0.61;84.61
20027;BME280;10174;42.688;23.344;2023-02-13T03:31:37;97119.44;;;-0.98;85.40
20027;BME280;10174;42.688;23.344;2023-02-13T03:34:11;97147.25;;;-0.76;85.73
20027;BME280;10174;42.688;23.344;2023-02-13T03:36:49;97015.94;;;-1.75;85.52
20027;BME280;10174;42.688;23.344;2023-02-13T03:42:22;97154.97;;;-0.92;85.60
20027;BME280;10174;42.688;23.344;2023-02-13T03:44:55;97060.56;;;-1.64;85.89
20027;BME280;10174;42.688;23.344;2023-02-13T03:47:41;97144.63;;;-1.03;85.53
20027;BME280;10174;42.688;23.344;2023-02-13T03:50:09;97017.63;;;-1.84;85.60
20027;BME280;10174;42.688;23.344;2023-02-13T03:55:12;97144.25;;;-1.18;85.64
20027;BME280;10174;42.688;23.344;2023-02-13T03:58:01;97106.47;;;-1.56;85.72
20027;BME280;10174;42.688;23.344;2023-02-13T04:00:50;97149.19;;;-1.43;86.21
20027;BME280;10174;42.688;23.344;2023-02-13T04:06:03;97148.47;;;-1.45;85.69
20027;BME280;10174;42.688;23.344;2023-02-13T04:08:30;97152.41;;;-1.49;85.75
20027;BME280;10174;42.688;23.344;2023-02-13T04:13:42;97146.03;;;-1.56;85.35
20027;BME280;10174;42.688;23.344;2023-02-13T04:16:31;97140.06;;;-1.58;85.96
20027;BME280;10174;42.688;23.344;2023-02-13T04:18:59;97136.50;;;-1.77;85.58
20027;BME280;10174;42.688;23.344;2023-02-13T04:21:25;97084.38;;;-2.12;85.98
20027;BME280;10174;42.688;23.344;2023-02-13T04:23:50;97141.34;;;-1.72;86.06
20027;BME280;10174;42.688;23.344;2023-02-13T04:26:19;97159.53;;;-1.69;86.44
20027;BME280;10174;42.688;23.344;2023-02-13T04:28:45;97082.59;;;-2.22;86.30
20027;BME280;10174;42.688;23.344;2023-02-13T04:31:10;97100.03;;;-2.11;86.39
20027;BME280;10174;42.688;23.344;2023-02-13T04:33:36;97152.44;;;-1.69;85.94
20027;BME280;10174;42.688;23.344;2023-02-13T04:36:01;97151.59;;;-1.59;86.03
20027;BME280;10174;42.688;23.344;2023-02-13T04:38:27;97092.13;;;-1.91;85.25
20027;BME280;10174;42.688;23.344;2023-02-13T04:40:52;97085.31;;;-1.84;85.56
20027;BME280;10174;42.688;23.344;2023-02-13T04:43:17;97149.06;;;-1.51;85.50
20027;BME280;10174;42.688;23.344;2023-02-13T04:45:47;97161.81;;;-1.37;85.11
20027;BME280;10174;42.688;23.344;2023-02-13T04:48:12;97048.19;;;-2.01;84.98
20027;BME280;10174;42.688;23.344;2023-02-13T04:50:38;97138.50;;;-1.51;84.44
20027;BME280;10174;42.688;23.344;2023-02-13T04:53:03;97161.81;;;-1.47;84.90
20027;BME280;10174;42.688;23.344;2023-02-13T04:55:29;97157.97;;;-1.52;85.28
20027;BME280;10174;42.688;23.344;2023-02-13T04:57:54;97112.50;;;-1.74;84.68
20027;BME280;10174;42.688;23.344;2023-02-13T05:00:21;97157.69;;;-1.49;84.69
20027;BME280;10174;42.688;23.344;2023-02-13T05:02:47;97172.09;;;-1.53;84.45
20027;BME280;10174;42.688;23.344;2023-02-13T05:05:12;97128.88;;;-1.80;84.81
20027;BME280;10174;42.688;23.344;2023-02-13T05:07:38;97161.59;;;-1.63;84.98
20027;BME280;10174;42.688;23.344;2023-02-13T05:10:03;97180.69;;;-1.51;84.70
20027;BME280;10174;42.688;23.344;2023-02-13T05:12:29;97119.44;;;-1.92;84.71
20027;BME280;10174;42.688;23.344;2023-02-13T05:14:54;97185.47;;;-1.65;84.65
20027;BME280;10174;42.688;23.344;2023-02-13T05:17:20;97128.34;;;-1.93;84.88
20027;BME280;10174;42.688;23.344;2023-02-13T05:19:45;97178.91;;;-1.61;84.95
20027;BME280;10174;42.688;23.344;2023-02-13T05:22:10;97190.00;;;-1.47;84.66
20027;BME280;10174;42.688;23.344;2023-02-13T05:24:54;97184.59;;;-1.46;84.21
20027;BME280;10174;42.688;23.344;2023-02-13T05:27:20;97095.78;;;-2.12;84.27
20027;BME280;10174;42.688;23.344;2023-02-13T05:29:46;97184.03;;;-1.49;84.09
20027;BME280;10174;42.688;23.344;2023-02-13T05:32:11;97182.09;;;-1.47;83.73
20027;BME280;10174;42.688;23.344;2023-02-13T05:34:36;97177.50;;;-1.45;84.04
20027;BME280;10174;42.688;23.344;2023-02-13T05:37:02;97189.16;;;-1.38;83.71
20027;BME280;10174;42.688;23.344;2023-02-13T05:39:27;97138.00;;;-1.65;83.43
20027;BME280;10174;42.688;23.344;2023-02-13T05:41:53;97168.78;;;-1.55;83.63
20027;BME280;10174;42.688;23.344;2023-02-13T05:44:18;97200.13;;;-1.33;83.76
20027;BME280;10174;42.688;23.344;2023-02-13T05:46:44;97153.25;;;-1.68;83.34
20027;BME280;10174;42.688;23.344;2023-02-13T05:49:10;97200.13;;;-1.33;83.68
20027;BME280;10174;42.688;23.344;2023-02-13T05:51:36;97177.38;;;-1.44;83.09
20027;BME280;10174;42.688;23.344;2023-02-13T05:54:02;97207.84;;;-1.21;82.86
20027;BME280;10174;42.688;23.344;2023-02-13T05:56:27;97199.56;;;-1.27;82.64
20027;BME280;10174;42.688;23.344;2023-02-13T05:58:53;97157.69;;;-1.49;82.77
20027;BME280;10174;42.688;23.344;2023-02-13T06:01:20;97150.19;;;-1.54;82.84
20027;BME280;10174;42.688;23.344;2023-02-13T06:03:46;97207.75;;;-1.30;83.21
20027;BME280;10174;42.688;23.344;2023-02-13T06:06:11;97189.19;;;-1.48;84.09
20027;BME280;10174;42.688;23.344;2023-02-13T06:08:37;97179.06;;;-1.52;83.43
20027;BME280;10174;42.688;23.344;2023-02-13T06:11:03;97218.13;;;-1.18;83.06
20027;BME280;10174;42.688;23.344;2023-02-13T06:13:28;97214.25;;;-1.14;82.94
20027;BME280;10174;42.688;23.344;2023-02-13T06:15:54;97210.03;;;-1.07;82.68
20027;BME280;10174;42.688;23.344;2023-02-13T06:18:19;97175.38;;;-1.32;82.17
20027;BME280;10174;42.688;23.344;2023-02-13T06:20:45;97225.28;;;-1.01;82.15
20027;BME280;10174;42.688;23.344;2023-02-13T06:23:10;97131.03;;;-1.46;82.28
20027;BME280;10174;42.688;23.344;2023-02-13T06:25:36;97216.34;;;-0.80;81.65
20027;BME280;10174;42.688;23.344;2023-02-13T06:28:03;97207.88;;;-0.84;81.61
20027;BME280;10174;42.688;23.344;2023-02-13T06:30:29;97178.94;;;-1.03;81.25
20027;BME280;10174;42.688;23.344;2023-02-13T06:32:54;97240.19;;;-0.72;81.50
20027;BME280;10174;42.688;23.344;2023-02-13T06:35:20;97111.56;;;-1.35;81.40
20027;BME280;10174;42.688;23.344;2023-02-13T06:37:45;97221.41;;;-0.59;81.13
20027;BME280;10174;42.688;23.344;2023-02-13T06:40:12;97227.88;;;-0.54;80.98
20027;BME280;10174;42.688;23.344;2023-02-13T06:42:38;97233.94;;;-0.43;80.80
20027;BME280;10174;42.688;23.344;2023-02-13T06:45:04;97075.16;;;-1.32;80.87
20027;BME280;10174;42.688;23.344;2023-02-13T06:47:30;97187.09;;;-0.69;80.46
20027;BME280;10174;42.688;23.344;2023-02-13T06:49:55;97237.59;;;-0.44;81.08
20027;BME280;10174;42.688;23.344;2023-02-13T06:52:21;97214.28;;;-0.59;81.17
20027;BME280;10174;42.688;23.344;2023-02-13T06:54:46;97237.31;;;-0.41;81.58
20027;BME280;10174;42.688;23.344;2023-02-13T06:57:11;97235.63;;;-0.42;80.94
20027;BME280;10174;42.688;23.344;2023-02-13T06:59:37;97226.97;;;-0.34;81.15
20027;BME280;10174;42.688;23.344;2023-02-13T07:02:02;97223.75;;;-0.10;80.12
20027;BME280;10174;42.688;23.344;2023-02-13T07:04:28;97232.97;;;-0.14;80.21
20027;BME280;10174;42.688;23.344;2023-02-13T07:06:54;97109.06;;;-0.81;80.09
20027;BME280;10174;42.688;23.344;2023-02-13T07:09:21;97198.84;;;-0.26;79.86
20027;BME280;10174;42.688;23.344;2023-02-13T07:11:46;97138.59;;;-0.68;79.27
20027;BME280;10174;42.688;23.344;2023-02-13T07:14:11;97208.88;;;-0.11;79.86
20027;BME280;10174;42.688;23.344;2023-02-13T07:16:37;97101.06;;;-0.90;79.65
20027;BME280;10174;42.688;23.344;2023-02-13T07:19:02;97166.09;;;-0.61;79.56
20027;BME280;10174;42.688;23.344;2023-02-13T07:21:27;97241.72;;;-0.14;79.84
20027;BME280;10174;42.688;23.344;2023-02-13T07:23:53;97193.50;;;-0.44;79.84
20027;BME280;10174;42.688;23.344;2023-02-13T07:26:18;97203.63;;;-0.39;80.32
20027;BME280;10174;42.688;23.344;2023-02-13T07:28:44;97237.94;;;-0.11;80.27
20027;BME280;10174;42.688;23.344;2023-02-13T07:31:09;97235.13;;;0.00;79.86
20027;BME280;10174;42.688;23.344;2023-02-13T07:33:36;97198.38;;;-0.03;78.47
20027;BME280;10174;42.688;23.344;2023-02-13T07:36:02;97141.22;;;-0.40;78.29
20027;BME280;10174;42.688;23.344;2023-02-13T07:38:29;97243.09;;;0.08;78.77
20027;BME280;10174;42.688;23.344;2023-02-13T07:41:02;97214.31;;;-0.13;79.13
20027;BME280;10174;42.688;23.344;2023-02-13T07:43:28;97216.16;;;0.05;78.34
20027;BME280;10174;42.688;23.344;2023-02-13T07:45:57;97195.59;;;0.16;77.39
20027;BME280;10174;42.688;23.344;2023-02-13T07:48:23;97236.06;;;0.71;76.69
20027;BME280;10174;42.688;23.344;2023-02-13T07:50:52;97244.84;;;0.53;76.28
20027;BME280;10174;42.688;23.344;2023-02-13T07:53:18;97229.16;;;0.78;76.18
20027;BME280;10174;42.688;23.344;2023-02-13T07:55:44;97244.75;;;1.08;74.93
20027;BME280;10174;42.688;23.344;2023-02-13T07:58:09;97192.28;;;0.77;75.33
20027;BME280;10174;42.688;23.344;2023-02-13T08:00:35;97236.66;;;0.83;75.38
20027;BME280;10174;42.688;23.344;2023-02-13T08:03:01;97212.66;;;0.84;75.59
20027;BME280;10174;42.688;23.344;2023-02-13T08:05:27;97128.31;;;0.55;74.16
20027;BME280;10174;42.688;23.344;2023-02-13T08:07:53;97238.28;;;1.36;74.60
20027;BME280;10174;42.688;23.344;2023-02-13T08:10:19;97169.84;;;0.89;74.30
20027;BME280;10174;42.688;23.344;2023-02-13T08:13:04;97120.00;;;0.50;74.19
20027;BME280;10174;42.688;23.344;2023-02-13T08:15:30;97114.13;;;0.38;75.20
20027;BME280;10174;42.688;23.344;2023-02-13T08:17:55;97161.59;;;0.66;75.32
20027;BME280;10174;42.688;23.344;2023-02-13T08:20:21;97220.25;;;1.05;75.33
20027;BME280;10174;42.688;23.344;2023-02-13T08:22:46;97194.84;;;0.95;74.93
20027;BME280;10174;42.688;23.344;2023-02-13T08:25:12;97228.63;;;1.27;75.03
20027;BME280;10174;42.688;23.344;2023-02-13T08:27:37;97233.88;;;1.53;74.03
20027;BME280;10174;42.688;23.344;2023-02-13T08:30:04;97239.75;;;1.73;73.74
20027;BME280;10174;42.688;23.344;2023-02-13T08:32:30;97235.16;;;1.84;72.59
20027;BME280;10174;42.688;23.344;2023-02-13T08:34:55;97239.19;;;1.96;71.61
20027;BME280;10174;42.688;23.344;2023-02-13T08:37:21;97086.00;;;0.63;72.98
20027;BME280;10174;42.688;23.344;2023-02-13T08:39:46;97233.44;;;1.66;73.76
20027;BME280;10174;42.688;23.344;2023-02-13T08:42:11;97211.56;;;1.56;73.23
20027;BME280;10174;42.688;23.344;2023-02-13T08:44:37;97205.72;;;1.52;73.60
20027;BME280;10174;42.688;23.344;2023-02-13T08:47:05;97228.75;;;2.03;71.95
20027;BME280;10174;42.688;23.344;2023-02-13T08:49:31;97216.81;;;1.99;71.60
20027;BME280;10174;42.688;23.344;2023-02-13T08:51:57;97232.34;;;1.85;72.76
20027;BME280;10174;42.688;23.344;2023-02-13T08:54:23;97221.50;;;1.62;72.94
20027;BME280;10174;42.688;23.344;2023-02-13T08:56:49;97222.25;;;1.46;73.47
20027;BME280;10174;42.688;23.344;2023-02-13T08:59:14;97245.63;;;1.93;72.94
20027;BME280;10174;42.688;23.344;2023-02-13T09:01:39;97230.44;;;2.37;71.30
20027;BME280;10174;42.688;23.344;2023-02-13T09:04:05;97212.78;;;1.86;71.55
20027;BME280;10174;42.688;23.344;2023-02-13T09:06:30;97230.13;;;2.23;71.18
20027;BME280;10174;42.688;23.344;2023-02-13T09:08:56;97148.28;;;1.53;71.35
20027;BME280;10174;42.688;23.344;2023-02-13T09:11:21;97177.34;;;1.87;71.25
20027;BME280;10174;42.688;23.344;2023-02-13T09:13:48;97157.31;;;1.42;72.26
20027;BME280;10174;42.688;23.344;2023-02-13T09:16:14;97233.38;;;1.92;72.56
20027;BME280;10174;42.688;23.344;2023-02-13T09:18:40;97227.63;;;1.63;73.96
20027;BME280;10174;42.688;23.344;2023-02-13T09:21:08;97232.41;;;2.10;73.12
20027;BME280;10174;42.688;23.344;2023-02-13T09:23:37;97234.44;;;2.65;71.27
20027;BME280;10174;42.688;23.344;2023-02-13T09:26:04;97192.31;;;2.38;70.37
20027;BME280;10174;42.688;23.344;2023-02-13T09:28:33;97101.56;;;1.60;71.29
20027;BME280;10174;42.688;23.344;2023-02-13T09:30:58;97180.06;;;2.61;70.55
20027;BME280;10174;42.688;23.344;2023-02-13T09:33:25;97186.69;;;2.49;69.88
20027;BME280;10174;42.688;23.344;2023-02-13T09:35:50;97150.88;;;2.45;69.48
20027;BME280;10174;42.688;23.344;2023-02-13T09:38:16;97152.66;;;2.61;68.95
20027;BME280;10174;42.688;23.344;2023-02-13T09:40:49;97217.81;;;3.05;69.21
20027;BME280;10174;42.688;23.344;2023-02-13T09:43:30;97203.56;;;2.89;69.13
20027;BME280;10174;42.688;23.344;2023-02-13T09:46:09;97203.38;;;3.07;69.24
20027;BME280;10174;42.688;23.344;2023-02-13T09:48:38;97206.66;;;3.17;68.49
20027;BME280;10174;42.688;23.344;2023-02-13T09:51:04;97171.38;;;2.84;69.15
20027;BME280;10174;42.688;23.344;2023-02-13T09:53:30;97163.44;;;2.59;69.59
20027;BME280;10174;42.688;23.344;2023-02-13T10:14:00;97163.91;;;4.06;65.06
20027;BME280;10174;42.688;23.344;2023-02-13T10:16:34;97168.38;;;4.29;63.98
20027;BME280;10174;42.688;23.344;2023-02-13T10:19:34;97168.63;;;4.19;65.29
20027;BME280;10174;42.688;23.344;2023-02-13T10:22:09;97163.28;;;6.43;58.90
20027;BME280;10174;42.688;23.344;2023-02-13T10:24:41;97151.19;;;5.38;59.64
20027;BME280;10174;42.688;23.344;2023-02-13T10:27:17;97080.84;;;5.75;57.61
20027;BME280;10174;42.688;23.344;2023-02-13T10:30:05;97108.13;;;6.57;55.88
20027;BME280;10174;42.688;23.344;2023-02-13T10:33:02;96990.72;;;6.84;52.40
20027;BME280;10174;42.688;23.344;2023-02-13T10:38:15;97102.16;;;7.66;51.95
20027;BME280;10174;42.688;23.344;2023-02-13T10:41:13;97098.00;;;8.66;49.78
20027;BME280;10174;42.688;23.344;2023-02-13T10:46:42;97115.19;;;11.40;43.29
20027;BME280;10174;42.688;23.344;2023-02-13T10:55:01;97102.63;;;11.52;42.55
20027;BME280;10174;42.688;23.344;2023-02-13T10:58:08;97099.03;;;11.58;41.62
20027;BME280;10174;42.688;23.344;2023-02-13T11:00:40;97087.97;;;11.30;42.23
20027;BME280;10174;42.688;23.344;2023-02-13T11:03:24;97023.97;;;10.58;42.21
20027;BME280;10174;42.688;23.344;2023-02-13T11:05:51;97087.75;;;10.69;43.38
20027;BME280;10174;42.688;23.344;2023-02-13T11:08:24;97096.44;;;10.14;44.14
20027;BME280;10174;42.688;23.344;2023-02-13T11:10:50;97031.47;;;10.74;42.83
20027;BME280;10174;42.688;23.344;2023-02-13T11:13:24;97073.41;;;12.17;40.39
20027;BME280;10174;42.688;23.344;2023-02-13T11:18:29;97071.03;;;11.78;41.33
20027;BME280;10174;42.688;23.344;2023-02-13T11:21:07;97062.19;;;12.32;39.96
20027;BME280;10174;42.688;23.344;2023-02-13T11:23:37;97033.28;;;10.30;42.67
20027;BME280;10174;42.688;23.344;2023-02-13T11:28:36;97038.28;;;11.14;42.37
20027;BME280;10174;42.688;23.344;2023-02-13T11:31:18;97035.50;;;11.02;41.72
20027;BME280;10174;42.688;23.344;2023-02-13T11:33:45;97038.00;;;9.32;45.67
20027;BME280;10174;42.688;23.344;2023-02-13T11:39:24;96990.94;;;11.43;41.63
20027;BME280;10174;42.688;23.344;2023-02-13T11:41:50;97022.69;;;11.83;40.91
20027;BME280;10174;42.688;23.344;2023-02-13T11:44:40;96919.25;;;11.18;40.07
20027;BME280;10174;42.688;23.344;2023-02-13T11:47:05;96895.16;;;11.23;39.87
20027;BME280;10174;42.688;23.344;2023-02-13T11:49:34;96991.03;;;11.67;40.57
20027;BME280;10174;42.688;23.344;2023-02-13T11:52:02;96953.56;;;12.43;37.68
20027;BME280;10174;42.688;23.344;2023-02-13T11:54:36;96972.75;;;11.08;40.08
20027;BME280;10174;42.688;23.344;2023-02-13T11:57:19;96980.06;;;11.80;38.50
20027;BME280;10174;42.688;23.344;2023-02-13T11:59:46;96941.25;;;10.97;38.86
20027;BME280;10174;42.688;23.344;2023-02-13T12:04:38;96967.97;;;12.01;37.81
20027;BME280;10174;42.688;23.344;2023-02-13T12:07:12;96964.03;;;12.51;36.86
20027;BME280;10174;42.688;23.344;2023-02-13T12:09:40;96958.59;;;12.27;36.76
20027;BME280;10174;42.688;23.344;2023-02-13T12:12:05;96967.50;;;11.32;37.08
20027;BME280;10174;42.688;23.344;2023-02-13T12:14:37;96952.53;;;12.44;35.99
20027;BME280;10174;42.688;23.344;2023-02-13T12:17:06;96873.19;;;10.66;38.06
20027;BME280;10174;42.688;23.344;2023-02-13T12:19:42;96963.16;;;10.38;39.60
20027;BME280;10174;42.688;23.344;2023-02-13T12:36:15;96963.22;;;10.31;39.93
20027;BME280;10174;42.688;23.344;2023-02-13T13:17:45;96897.94;;;9.55;40.07
20027;BME280;10174;42.688;23.344;2023-02-13T13:20:33;96811.72;;;7.97;41.78
20027;BME280;10174;42.688;23.344;2023-02-13T13:23:29;96776.00;;;7.05;43.90
20027;BME280;10174;42.688;23.344;2023-02-13T13:28:45;96885.22;;;7.35;44.95
20027;BME280;10174;42.688;23.344;2023-02-13T13:31:12;96881.50;;;7.22;45.57
20027;BME280;10174;42.688;23.344;2023-02-13T13:33:44;96887.25;;;7.19;45.50
20027;BME280;10174;42.688;23.344;2023-02-13T13:39:26;96885.41;;;7.26;45.40
20027;BME280;10174;42.688;23.344;2023-02-13T13:42:19;96777.53;;;6.46;45.92
20027;BME280;10174;42.688;23.344;2023-02-13T13:50:24;96829.78;;;6.62;46.81
20027;BME280;10174;42.688;23.344;2023-02-13T13:53:17;96874.47;;;7.08;46.71
20027;BME280;10174;42.688;23.344;2023-02-13T13:58:40;96884.59;;;7.19;46.75
20027;BME280;10174;42.688;23.344;2023-02-13T14:01:23;96850.28;;;6.54;47.31
20027;BME280;10174;42.688;23.344;2023-02-13T14:03:57;96804.41;;;6.37;47.72
20027;BME280;10174;42.688;23.344;2023-02-13T14:09:02;96852.53;;;6.51;48.10
20027;BME280;10174;42.688;23.344;2023-02-13T14:11:36;96886.19;;;6.45;48.29
20027;BME280;10174;42.688;23.344;2023-02-13T14:16:57;96869.03;;;6.68;48.32
20027;BME280;10174;42.688;23.344;2023-02-13T14:19:33;96868.22;;;6.74;48.15
20027;BME280;10174;42.688;23.344;2023-02-13T14:24:54;96853.34;;;6.51;49.05
20027;BME280;10174;42.688;23.344;2023-02-13T14:27:34;96857.84;;;6.44;49.62
20027;BME280;10174;42.688;23.344;2023-02-13T14:30:03;96847.19;;;6.51;49.12
20027;BME280;10174;42.688;23.344;2023-02-13T14:32:34;96778.38;;;5.98;49.26
20027;BME280;10174;42.688;23.344;2023-02-13T14:35:28;96851.88;;;6.35;49.07
20027;BME280;10174;42.688;23.344;2023-02-13T14:37:59;96846.94;;;6.46;49.26
20027;BME280;10174;42.688;23.344;2023-02-13T14:43:37;96857.41;;;6.34;50.03
20027;BME280;10174;42.688;23.344;2023-02-13T14:51:29;96860.28;;;6.39;49.81
20027;BME280;10174;42.688;23.344;2023-02-13T14:54:28;96852.81;;;6.21;50.67
20027;BME280;10174;42.688;23.344;2023-02-13T14:57:07;96846.09;;;5.97;50.84
20027;BME280;10174;42.688;23.344;2023-02-13T14:59:42;96852.50;;;6.02;51.45
20027;BME280;10174;42.688;23.344;2023-02-13T15:02:14;96852.09;;;5.99;51.81
20027;BME280;10174;42.688;23.344;2023-02-13T15:04:47;96838.66;;;5.92;51.63
20027;BME280;10174;42.688;23.344;2023-02-13T15:08:10;96844.44;;;5.96;51.15
20027;BME280;10174;42.688;23.344;2023-02-13T15:12:58;96838.41;;;5.80;51.63
20027;BME280;10174;42.688;23.344;2023-02-13T15:15:28;96824.56;;;5.70;51.52
20027;BME280;10174;42.688;23.344;2023-02-13T15:18:00;96855.41;;;5.79;51.65
20027;BME280;10174;42.688;23.344;2023-02-13T15:20:29;96863.16;;;5.74;51.59
20027;BME280;10174;42.688;23.344;2023-02-13T15:22:57;96857.78;;;5.67;51.51
20027;BME280;10174;42.688;23.344;2023-02-13T15:25:38;96859.00;;;5.65;51.92
20027;BME280;10174;42.688;23.344;2023-02-13T15:28:05;96773.94;;;5.13;51.85
20027;BME280;10174;42.688;23.344;2023-02-13T15:30:33;96857.16;;;5.65;51.86
20027;BME280;10174;42.688;23.344;2023-02-13T15:33:11;96848.66;;;5.55;52.46
20027;BME280;10174;42.688;23.344;2023-02-13T15:35:39;96816.91;;;5.32;51.79
20027;BME280;10174;42.688;23.344;2023-02-13T15:38:25;96854.09;;;5.40;52.08
20027;BME280;10174;42.688;23.344;2023-02-13T15:40:52;96836.06;;;5.21;52.53
20027;BME280;10174;42.688;23.344;2023-02-13T15:43:34;96765.09;;;4.63;53.18
20027;BME280;10174;42.688;23.344;2023-02-13T15:46:07;96859.97;;;5.07;53.01
20027;BME280;10174;42.688;23.344;2023-02-13T15:48:42;96794.47;;;4.55;54.00
20027;BME280;10174;42.688;23.344;2023-02-13T15:51:18;96869.72;;;5.00;53.52
20027;BME280;10174;42.688;23.344;2023-02-13T15:54:26;96876.31;;;4.82;53.95
20027;BME280;10174;42.688;23.344;2023-02-13T15:56:55;96723.34;;;3.90;54.31
20027;BME280;10174;42.688;23.344;2023-02-13T15:59:24;96798.66;;;4.42;54.13
20027;BME280;10174;42.688;23.344;2023-02-13T16:01:50;96879.16;;;4.81;54.72